Time;durP1;ratioP1;P1;durP2;ratioP2;P2;SDS_P1;SDS_P2;PMS_P1;PMS_P2;Temp;Humidity;BMP_temperature;BMP_pressure;BME280_temperature;BME280_humidity;BME280_pressure;Samples;Min_cycle;Max_cycle;Signal;HPM_P1;HPM_P2
2022/12/07 00:01:27;;;;;;;5.20;1.67;;;3.50;99.90;;;;;;5053473;28;20041;-69
2022/12/07 00:04:03;;;;;;;6.35;1.60;;;3.50;99.90;;;;;;5053950;28;20049;-69
2022/12/07 00:06:29;;;;;;;3.85;1.40;;;3.50;99.90;;;;;;5053248;28;20049;-70
2022/12/07 00:08:55;;;;;;;8.43;1.67;;;3.50;99.90;;;;;;5037586;28;20041;-70
2022/12/07 00:11:22;;;;;;;10.02;1.70;;;3.70;99.90;;;;;;5053370;28;20033;-70
2022/12/07 00:13:52;;;;;;;8.32;1.50;;;3.70;99.90;;;;;;5039814;28;20039;-69
2022/12/07 00:16:19;;;;;;;5.70;1.40;;;3.70;99.90;;;;;;5072164;28;20393;-70
2022/12/07 00:18:45;;;;;;;6.45;1.33;;;3.70;99.90;;;;;;5057267;28;20037;-69
2022/12/07 00:21:16;;;;;;;8.15;1.50;;;3.70;99.90;;;;;;5057238;28;20033;-69
2022/12/07 00:23:43;;;;;;;5.97;1.20;;;3.70;99.90;;;;;;5052080;28;20481;-70
2022/12/07 00:26:12;;;;;;;4.50;0.93;;;3.70;99.90;;;;;;5053795;28;20584;-69
2022/12/07 00:28:38;;;;;;;4.70;0.90;;;3.70;99.90;;;;;;5053738;28;20049;-70
2022/12/07 00:31:09;;;;;;;8.50;1.20;;;3.70;99.90;;;;;;5037173;28;20043;-69
2022/12/07 00:33:35;;;;;;;4.38;1.00;;;3.70;99.90;;;;;;5058915;28;20047;-69
2022/12/07 00:36:04;;;;;;;6.00;1.10;;;3.70;99.90;;;;;;5053621;28;20087;-70
2022/12/07 00:38:32;;;;;;;4.40;1.25;;;3.70;99.90;;;;;;5036287;28;20052;-69
2022/12/07 00:41:00;;;;;;;5.45;0.90;;;3.70;99.90;;;;;;5036935;28;20087;-70
2022/12/07 00:43:26;;;;;;;2.97;1.10;;;3.80;99.90;;;;;;5036249;28;20041;-69
2022/12/07 00:45:52;;;;;;;4.50;1.13;;;3.70;99.90;;;;;;5054354;28;20043;-69
2022/12/07 00:48:17;;;;;;;6.75;1.20;;;3.70;99.90;;;;;;5056895;28;20052;-69
2022/12/07 00:50:43;;;;;;;5.07;1.00;;;3.70;99.90;;;;;;5056849;28;20075;-69
2022/12/07 00:53:09;;;;;;;6.63;1.02;;;3.70;99.90;;;;;;5072171;28;20047;-69
2022/12/07 00:55:35;;;;;;;4.22;1.00;;;3.60;99.90;;;;;;5054455;28;20120;-69
2022/12/07 00:58:00;;;;;;;4.60;1.10;;;3.70;99.90;;;;;;5053479;28;20037;-70
2022/12/07 01:00:26;;;;;;;5.47;1.13;;;3.70;99.90;;;;;;5053213;28;20047;-69
2022/12/07 01:02:52;;;;;;;6.70;1.10;;;3.70;99.90;;;;;;5056778;28;20497;-69
2022/12/07 01:05:18;;;;;;;6.75;1.30;;;3.70;99.90;;;;;;5040358;28;20041;-69
2022/12/07 01:07:43;;;;;;;9.43;1.20;;;3.70;99.90;;;;;;5052982;28;20523;-69
2022/12/07 01:10:09;;;;;;;5.35;1.60;;;3.70;99.90;;;;;;5052949;28;20523;-70
2022/12/07 01:12:35;;;;;;;4.10;1.10;;;3.70;99.90;;;;;;5061915;28;20052;-69
2022/12/07 01:15:01;;;;;;;9.18;1.58;;;3.80;99.90;;;;;;5059154;28;20102;-69
2022/12/07 01:17:27;;;;;;;7.07;1.30;;;3.80;99.90;;;;;;5036219;28;20033;-69
2022/12/07 01:19:53;;;;;;;5.75;1.10;;;3.70;99.90;;;;;;5036456;28;20394;-69
2022/12/07 01:22:18;;;;;;;7.55;1.58;;;3.70;99.90;;;;;;5035247;28;20036;-69
2022/12/07 01:24:46;;;;;;;6.55;1.10;;;3.70;99.90;;;;;;5050979;28;20120;-70
2022/12/07 01:27:12;;;;;;;7.22;0.90;;;3.70;99.90;;;;;;5053030;28;20436;-70
2022/12/07 01:29:38;;;;;;;6.57;1.50;;;3.70;99.90;;;;;;5036053;28;20041;-69
2022/12/07 01:32:03;;;;;;;9.43;1.85;;;3.70;99.90;;;;;;5036013;28;20036;-69
2022/12/07 01:34:29;;;;;;;7.47;1.33;;;3.80;99.90;;;;;;5042945;28;20057;-70
2022/12/07 01:36:55;;;;;;;4.22;1.20;;;3.70;99.90;;;;;;5052444;28;20032;-69
2022/12/07 01:39:20;;;;;;;5.50;1.20;;;3.80;99.90;;;;;;5052695;28;20064;-69
2022/12/07 01:41:46;;;;;;;3.88;1.10;;;3.70;99.90;;;;;;5052663;28;20489;-69
2022/12/07 01:44:19;;;;;;;3.05;1.13;;;3.70;99.90;;;;;;5034246;28;20051;-69
2022/12/07 01:47:04;;;;;;;4.47;0.95;;;3.70;99.90;;;;;;5035926;28;20492;-70
2022/12/07 01:49:42;;;;;;;8.00;1.08;;;3.70;99.90;;;;;;5052544;28;20500;-69
2022/12/07 01:52:19;;;;;;;5.78;1.05;;;3.60;99.90;;;;;;5052129;28;20041;-69
2022/12/07 01:54:47;;;;;;;5.88;1.00;;;3.70;99.90;;;;;;5047321;28;20084;-70
2022/12/07 01:57:15;;;;;;;6.85;1.33;;;3.70;99.90;;;;;;5035861;28;20421;-70
2022/12/07 01:59:42;;;;;;;3.00;1.05;;;3.70;99.90;;;;;;5052098;28;20033;-69
2022/12/07 02:02:15;;;;;;;4.88;1.00;;;3.80;99.90;;;;;;5052357;28;20044;-69
2022/12/07 02:04:41;;;;;;;4.97;1.00;;;3.80;99.90;;;;;;5082672;28;20060;-69
2022/12/07 02:07:06;;;;;;;2.95;0.60;;;3.80;99.90;;;;;;5038563;28;20556;-69
2022/12/07 02:09:32;;;;;;;4.90;0.80;;;3.80;99.90;;;;;;5031773;28;20045;-69
2022/12/07 02:11:57;;;;;;;2.97;1.23;;;3.80;99.90;;;;;;5031555;28;20042;-69
2022/12/07 02:14:23;;;;;;;2.10;0.70;;;3.80;99.90;;;;;;5046709;28;20112;-69
2022/12/07 02:17:15;;;;;;;4.20;0.70;;;3.80;99.90;;;;;;5035227;28;20089;-69
2022/12/07 02:19:52;;;;;;;2.67;0.70;;;3.80;99.90;;;;;;5024675;28;20045;-70
2022/12/07 02:22:34;;;;;;;3.80;0.73;;;3.80;99.90;;;;;;5035351;28;20137;-70
2022/12/07 02:25:32;;;;;;;5.93;0.70;;;3.80;99.90;;;;;;5038868;28;20068;-70
2022/12/07 02:28:30;;;;;;;3.03;0.70;;;3.80;99.90;;;;;;5055149;28;20500;-70
2022/12/07 02:31:02;;;;;;;4.85;0.82;;;3.80;99.90;;;;;;5071881;28;20052;-69
2022/12/07 02:33:35;;;;;;;6.55;1.05;;;3.80;99.90;;;;;;5052906;28;20036;-69
2022/12/07 02:36:10;;;;;;;5.38;0.90;;;3.80;99.90;;;;;;5041057;28;20083;-69
2022/12/07 02:38:52;;;;;;;4.82;1.00;;;3.80;99.90;;;;;;5038370;28;20098;-69
2022/12/07 02:41:24;;;;;;;5.43;1.13;;;3.70;99.90;;;;;;5039162;28;20119;-69
2022/12/07 02:43:58;;;;;;;;;;;3.80;99.90;;;;;;5038636;28;20045;-70
2022/12/07 02:46:29;;;;;;;3.35;0.95;;;3.80;99.90;;;;;;5038441;28;19952;-69
2022/12/07 02:48:55;;;;;;;4.63;1.00;;;3.70;99.90;;;;;;5055972;28;20421;-70
2022/12/07 02:51:22;;;;;;;5.93;0.82;;;3.80;99.90;;;;;;5039292;28;20037;-69
2022/12/07 02:53:47;;;;;;;5.38;0.90;;;3.80;99.90;;;;;;5053546;28;20045;-70
2022/12/07 02:56:44;;;;;;;6.45;1.05;;;3.80;99.90;;;;;;5056678;28;20404;-69
2022/12/07 02:59:26;;;;;;;5.05;0.98;;;3.70;99.90;;;;;;5039099;28;20037;-69
2022/12/07 03:01:52;;;;;;;;;;;3.90;99.90;;;;;;5056099;28;20120;-69
2022/12/07 03:04:44;;;;;;;5.93;0.95;;;4.10;99.90;;;;;;5068101;28;19970;-69
2022/12/07 03:07:15;;;;;;;7.40;0.77;;;4.10;99.90;;;;;;5058650;28;20048;-70
2022/12/07 03:10:16;;;;;;;7.32;0.90;;;4.10;99.90;;;;;;5075470;28;20287;-69
2022/12/07 03:13:05;;;;;;;6.03;0.90;;;4.10;99.90;;;;;;5054565;28;20115;-70
2022/12/07 03:15:53;;;;;;;6.00;0.70;;;4.00;99.90;;;;;;5053562;28;20052;-69
2022/12/07 03:18:23;;;;;;;8.88;1.02;;;4.00;99.90;;;;;;5038820;28;20562;-69
2022/12/07 03:20:53;;;;;;;3.13;0.75;;;4.00;99.90;;;;;;5055387;28;20045;-69
2022/12/07 03:23:20;;;;;;;8.27;1.92;;;3.90;99.90;;;;;;5045681;28;20068;-70
2022/12/07 03:25:52;;;;;;;3.83;0.70;;;3.90;99.90;;;;;;5060519;28;20037;-70
2022/12/07 03:28:22;;;;;;;3.13;0.55;;;3.90;99.90;;;;;;5049042;28;20448;-69
2022/12/07 03:31:05;;;;;;;5.30;0.90;;;4.00;99.90;;;;;;5074866;28;20032;-69
2022/12/07 03:34:12;;;;;;;3.92;1.15;;;4.10;99.90;;;;;;5057164;28;20515;-69
2022/12/07 03:36:40;;;;;;;4.22;0.60;;;4.10;99.90;;;;;;4965930;28;20086;-69
2022/12/07 03:39:16;;;;;;;3.90;0.68;;;4.10;99.90;;;;;;5018687;28;20045;-70
2022/12/07 03:41:41;;;;;;;6.00;0.90;;;4.10;99.90;;;;;;5035148;28;20056;-69
2022/12/07 03:44:07;;;;;;;5.10;1.10;;;4.10;99.90;;;;;;5048523;28;20497;-70
2022/12/07 03:47:13;;;;;;;4.65;0.70;;;4.00;99.90;;;;;;5070509;28;20115;-70
2022/12/07 03:50:03;;;;;;;5.13;0.80;;;4.00;99.90;;;;;;5026240;28;20126;-70
2022/12/07 03:52:59;;;;;;;4.72;0.70;;;4.00;99.90;;;;;;5056768;28;20091;-69
2022/12/07 03:55:31;;;;;;;4.97;0.60;;;4.00;99.90;;;;;;5042597;28;20158;-70
2022/12/07 03:58:02;;;;;;;6.60;0.90;;;4.00;99.90;;;;;;5074661;28;20090;-70
2022/12/07 04:00:28;;;;;;;8.50;1.15;;;4.00;99.90;;;;;;5057938;28;20041;-70
2022/12/07 04:02:55;;;;;;;4.68;1.13;;;4.00;99.90;;;;;;5068316;28;20114;-70
2022/12/07 04:05:21;;;;;;;4.28;0.80;;;4.00;99.90;;;;;;5037861;28;20084;-70
2022/12/07 04:07:47;;;;;;;4.55;0.70;;;4.00;99.90;;;;;;5040545;28;20512;-69
2022/12/07 04:10:13;;;;;;;4.55;0.70;;;4.00;99.90;;;;;;5074232;28;20086;-69
2022/12/07 04:12:38;;;;;;;7.07;0.80;;;4.00;99.90;;;;;;5054606;28;20036;-69
2022/12/07 04:15:05;;;;;;;5.63;0.75;;;4.00;99.90;;;;;;5053786;28;20041;-70
2022/12/07 04:17:30;;;;;;;6.70;1.08;;;4.00;99.90;;;;;;5054179;28;20401;-69
2022/12/07 04:19:56;;;;;;;4.13;0.65;;;4.00;99.90;;;;;;5037442;28;20037;-70
2022/12/07 04:22:21;;;;;;;3.53;0.63;;;4.10;99.90;;;;;;5036767;28;20037;-69
2022/12/07 04:24:47;;;;;;;4.05;0.80;;;4.10;99.90;;;;;;5053464;28;20041;-70
2022/12/07 04:27:13;;;;;;;4.60;0.95;;;4.00;99.90;;;;;;5037186;28;20456;-69
2022/12/07 04:29:38;;;;;;;8.02;0.98;;;4.00;99.90;;;;;;5069907;28;20041;-69
2022/12/07 04:32:04;;;;;;;5.93;1.13;;;4.00;99.90;;;;;;5057236;28;20064;-69
2022/12/07 04:34:30;;;;;;;4.57;0.70;;;4.00;99.90;;;;;;5070707;28;20086;-69
2022/12/07 04:36:55;;;;;;;6.50;1.13;;;3.90;99.90;;;;;;5057031;28;20093;-69
2022/12/07 04:39:30;;;;;;;7.20;2.20;;;3.90;99.90;;;;;;5057054;28;20036;-69
2022/12/07 04:41:56;;;;;;;20.08;11.77;;;3.80;99.90;;;;;;5073606;28;20083;-69
2022/12/07 04:44:24;;;;;;;8.68;4.50;;;3.80;99.90;;;;;;5055735;28;20037;-70
2022/12/07 04:46:51;;;;;;;7.38;3.13;;;3.80;99.90;;;;;;5037081;28;20444;-69
2022/12/07 04:49:17;;;;;;;11.18;2.03;;;3.80;99.90;;;;;;5053386;28;20087;-70
2022/12/07 04:51:43;;;;;;;6.03;1.42;;;3.70;99.90;;;;;;5053425;28;20041;-69
2022/12/07 04:54:09;;;;;;;4.95;1.50;;;3.80;99.90;;;;;;5052761;28;20045;-70
2022/12/07 04:56:35;;;;;;;3.88;1.10;;;3.70;99.90;;;;;;5052902;28;20044;-70
2022/12/07 04:59:01;;;;;;;4.60;1.50;;;3.60;99.90;;;;;;5072780;28;20072;-70
2022/12/07 05:01:27;;;;;;;4.60;0.90;;;3.60;99.90;;;;;;5056476;28;20062;-69
2022/12/07 05:03:52;;;;;;;3.08;0.60;;;3.60;99.90;;;;;;5045817;28;20450;-69
2022/12/07 05:06:18;;;;;;;7.93;0.90;;;3.60;99.90;;;;;;5072902;28;20052;-70
2022/12/07 05:08:44;;;;;;;4.07;0.80;;;3.60;99.90;;;;;;5071998;28;20037;-69
2022/12/07 05:13:54;;;;;;;7.43;1.02;;;3.60;99.90;;;;;;5059192;28;20508;-69
2022/12/07 05:16:20;;;;;;;5.68;0.80;;;3.70;99.90;;;;;;5036144;28;20126;-69
2022/12/07 05:18:45;;;;;;;5.57;0.70;;;3.70;99.90;;;;;;5036490;28;20481;-69
2022/12/07 05:21:11;;;;;;;4.30;0.70;;;3.70;99.90;;;;;;5055839;28;20480;-69
2022/12/07 05:23:37;;;;;;;3.90;0.60;;;3.70;99.90;;;;;;5045078;28;20485;-69
2022/12/07 05:26:02;;;;;;;5.03;1.00;;;3.60;99.90;;;;;;5052679;28;20041;-69
2022/12/07 05:28:28;;;;;;;3.85;1.02;;;3.60;99.90;;;;;;5052626;28;20044;-69
2022/12/07 05:30:53;;;;;;;4.80;1.00;;;3.60;99.90;;;;;;5035148;28;20047;-69
2022/12/07 05:33:19;;;;;;;3.70;1.10;;;3.60;99.90;;;;;;5046323;28;20123;-69
2022/12/07 05:35:44;;;;;;;4.80;0.50;;;3.60;99.90;;;;;;5052290;28;20099;-70
2022/12/07 05:38:10;;;;;;;5.07;0.70;;;3.50;99.90;;;;;;5052449;28;20037;-69
2022/12/07 05:40:36;;;;;;;4.35;0.70;;;3.50;99.90;;;;;;5052489;28;20120;-69
2022/12/07 05:43:02;;;;;;;5.25;0.82;;;3.50;99.90;;;;;;5041894;28;20036;-69
2022/12/07 05:45:27;;;;;;;5.00;0.70;;;3.50;99.90;;;;;;5066479;28;20039;-69
2022/12/07 05:47:53;;;;;;;4.70;0.80;;;3.40;99.90;;;;;;5055689;28;20040;-69
2022/12/07 05:50:18;;;;;;;5.05;0.75;;;3.40;99.90;;;;;;5072327;28;20040;-69
2022/12/07 05:52:44;;;;;;;3.72;0.70;;;3.40;99.90;;;;;;5068117;28;20051;-69
2022/12/07 05:55:09;;;;;;;4.63;0.68;;;3.30;99.90;;;;;;5035638;28;20033;-69
2022/12/07 05:57:35;;;;;;;5.40;0.80;;;3.40;99.90;;;;;;5036583;28;20583;-69
2022/12/07 06:00:01;;;;;;;4.53;0.98;;;3.40;99.90;;;;;;5072113;28;20043;-69
2022/12/07 06:02:26;;;;;;;5.50;1.00;;;3.40;99.90;;;;;;5070515;28;20036;-69
2022/12/07 06:04:52;;;;;;;3.67;0.70;;;3.30;99.90;;;;;;5035421;28;20246;-69
2022/12/07 06:07:18;;;;;;;6.38;0.90;;;3.30;99.90;;;;;;5051938;28;20040;-69
2022/12/07 06:09:43;;;;;;;3.92;0.65;;;3.40;99.90;;;;;;5070220;28;20036;-69
2022/12/07 06:14:55;;;;;;;5.95;1.10;;;3.30;99.90;;;;;;5033303;28;20045;-69
2022/12/07 06:17:20;;;;;;;6.97;0.90;;;3.20;99.90;;;;;;5071987;28;20035;-69
2022/12/07 06:19:46;;;;;;;8.88;1.30;;;3.30;99.90;;;;;;5055224;28;20166;-69
2022/12/07 06:22:12;;;;;;;7.82;1.10;;;3.20;99.90;;;;;;5071943;28;20036;-69
2022/12/07 06:24:39;;;;;;;7.28;1.00;;;3.20;99.90;;;;;;5035472;28;20052;-69
2022/12/07 06:27:05;;;;;;;6.95;1.33;;;3.20;99.90;;;;;;5050850;28;20053;-69
2022/12/07 06:29:31;;;;;;;8.77;1.27;;;3.20;99.90;;;;;;5034819;28;20036;-69
2022/12/07 06:31:56;;;;;;;4.75;1.00;;;3.20;99.90;;;;;;5039296;28;20052;-69
2022/12/07 06:34:23;;;;;;;6.28;1.02;;;3.20;99.90;;;;;;5046379;28;20045;-69
2022/12/07 06:36:54;;;;;;;10.95;1.20;;;3.20;99.90;;;;;;5062356;28;20072;-69
2022/12/07 06:39:30;;;;;;;4.18;0.80;;;3.10;99.90;;;;;;5062204;28;20393;-69
2022/12/07 06:41:56;;;;;;;4.25;0.98;;;3.20;99.90;;;;;;5038641;28;20036;-70
2022/12/07 06:44:22;;;;;;;3.47;0.90;;;3.30;99.90;;;;;;5039503;28;20047;-69
2022/12/07 06:46:49;;;;;;;3.35;0.80;;;3.30;99.90;;;;;;5034665;28;20045;-69
2022/12/07 06:49:15;;;;;;;6.38;1.00;;;3.30;99.90;;;;;;5050757;28;20033;-69
2022/12/07 06:51:43;;;;;;;5.78;0.90;;;3.30;99.90;;;;;;5035082;28;20433;-69
2022/12/07 06:54:10;;;;;;;7.28;0.82;;;3.30;99.90;;;;;;5051045;28;20077;-69
2022/12/07 06:56:35;;;;;;;3.33;0.70;;;3.30;99.90;;;;;;5034523;28;20044;-69
2022/12/07 06:59:01;;;;;;;5.47;1.30;;;3.30;99.90;;;;;;5051538;28;20040;-69
2022/12/07 07:01:27;;;;;;;5.90;0.93;;;3.40;99.90;;;;;;5050656;28;20504;-69
2022/12/07 07:03:52;;;;;;;5.70;1.00;;;3.40;99.90;;;;;;5033836;28;20456;-69
2022/12/07 07:06:18;;;;;;;4.53;0.80;;;3.40;99.90;;;;;;5050485;28;20120;-69
2022/12/07 07:08:43;;;;;;;2.88;1.00;;;3.30;99.90;;;;;;5051196;28;20599;-69
2022/12/07 07:11:11;;;;;;;6.72;1.00;;;3.20;99.90;;;;;;5043700;28;20523;-69
2022/12/07 07:13:37;;;;;;;3.13;1.05;;;3.20;99.90;;;;;;5051384;28;20092;-69
2022/12/07 07:16:03;;;;;;;6.10;0.93;;;3.20;99.90;;;;;;5034710;28;20520;-69
2022/12/07 07:18:29;;;;;;;4.32;0.90;;;3.20;99.90;;;;;;5051592;28;20041;-70
2022/12/07 07:20:54;;;;;;;3.08;0.75;;;3.10;99.90;;;;;;5036111;28;20044;-69
2022/12/07 07:23:21;;;;;;;6.00;0.70;;;3.10;99.90;;;;;;5038405;28;20045;-69
2022/12/07 07:25:47;;;;;;;5.72;1.27;;;3.10;99.90;;;;;;5054829;28;20041;-69
2022/12/07 07:28:13;;;;;;;8.23;1.05;;;3.00;99.90;;;;;;5054910;28;20041;-69
2022/12/07 07:30:38;;;;;;;5.72;0.82;;;3.00;99.90;;;;;;5038149;28;20052;-69
2022/12/07 07:33:05;;;;;;;7.93;1.40;;;3.00;99.90;;;;;;5038276;28;20070;-69
2022/12/07 07:35:32;;;;;;;5.32;0.85;;;3.00;99.90;;;;;;5037956;28;20493;-69
2022/12/07 07:37:58;;;;;;;4.78;0.80;;;3.00;99.90;;;;;;5054997;28;20033;-69
2022/12/07 07:40:25;;;;;;;5.88;1.10;;;3.00;99.90;;;;;;5038409;28;20492;-69
2022/12/07 07:42:54;;;;;;;6.10;0.82;;;3.10;99.90;;;;;;5054778;28;20400;-69
2022/12/07 07:45:22;;;;;;;4.85;0.90;;;3.20;99.90;;;;;;5059185;28;20040;-69
2022/12/07 07:47:48;;;;;;;7.15;0.77;;;3.20;99.90;;;;;;5055425;28;20056;-69
2022/12/07 07:50:13;;;;;;;5.03;0.80;;;3.20;99.90;;;;;;5061830;28;20041;-79
2022/12/07 07:52:39;;;;;;;9.05;1.00;;;3.40;99.90;;;;;;5035894;28;20045;-70
2022/12/07 07:55:07;;;;;;;5.15;0.90;;;3.50;99.90;;;;;;5053419;28;20069;-70
2022/12/07 07:57:32;;;;;;;6.65;0.90;;;3.60;99.90;;;;;;5054463;28;20472;-70
2022/12/07 07:59:58;;;;;;;5.78;1.08;;;3.60;99.90;;;;;;5057423;28;20071;-70
2022/12/07 08:02:24;;;;;;;7.35;0.80;;;3.50;99.90;;;;;;5056498;28;20040;-70
2022/12/07 08:04:49;;;;;;;6.18;0.85;;;3.50;99.90;;;;;;5062963;28;20127;-71
2022/12/07 08:07:16;;;;;;;6.38;0.70;;;3.40;99.90;;;;;;5063307;28;20153;-70
2022/12/07 08:09:41;;;;;;;5.22;0.80;;;3.30;99.90;;;;;;5041711;28;20036;-70
2022/12/07 08:12:08;;;;;;;6.25;0.90;;;3.20;99.90;;;;;;5071219;28;20432;-71
2022/12/07 08:14:33;;;;;;;4.97;0.90;;;3.20;99.90;;;;;;5060735;28;20041;-70
2022/12/07 08:17:00;;;;;;;5.22;1.20;;;3.20;99.90;;;;;;5066553;28;20611;-70
2022/12/07 08:19:26;;;;;;;4.70;0.85;;;3.10;99.90;;;;;;5058591;28;20131;-70
2022/12/07 08:21:51;;;;;;;6.75;0.90;;;3.00;99.90;;;;;;5057608;28;20037;-70
2022/12/07 08:24:17;;;;;;;4.63;0.60;;;3.00;99.90;;;;;;5056255;28;20040;-70
2022/12/07 08:26:43;;;;;;;6.15;0.93;;;3.10;99.90;;;;;;5073831;28;20028;-70
2022/12/07 08:29:09;;;;;;;4.80;1.10;;;3.10;99.90;;;;;;5061818;28;20051;-70
2022/12/07 08:31:34;;;;;;;6.35;0.93;;;3.10;99.90;;;;;;5051648;28;20420;-70
2022/12/07 08:34:00;;;;;;;8.48;1.10;;;3.20;99.90;;;;;;5068934;28;20033;-70
2022/12/07 08:36:26;;;;;;;6.80;1.23;;;3.30;99.90;;;;;;5058005;28;20102;-70
2022/12/07 08:38:52;;;;;;;5.55;0.95;;;3.40;99.90;;;;;;5046107;28;20033;-70
2022/12/07 08:41:17;;;;;;;5.13;1.20;;;3.50;99.90;;;;;;5042956;28;20063;-70
2022/12/07 08:43:43;;;;;;;6.07;0.80;;;3.60;99.90;;;;;;5067380;28;20374;-70
2022/12/07 08:46:17;;;;;;;6.32;1.55;;;3.50;99.90;;;;;;5036199;28;20072;-70
2022/12/07 08:49:09;;;;;;;5.00;1.10;;;3.50;99.90;;;;;;5068586;28;20037;-70
2022/12/07 08:51:35;;;;;;;9.95;1.25;;;3.50;99.90;;;;;;5039961;28;20128;-70
2022/12/07 08:54:05;;;;;;;3.83;1.05;;;3.50;99.90;;;;;;5056363;28;20396;-70
2022/12/07 08:56:34;;;;;;;5.63;1.05;;;3.50;99.90;;;;;;5045842;28;20037;-70
2022/12/07 08:58:59;;;;;;;5.55;0.90;;;3.50;99.90;;;;;;5069503;28;20056;-70
2022/12/07 09:01:25;;;;;;;7.63;1.27;;;3.50;99.90;;;;;;5037345;28;20151;-70
2022/12/07 09:03:51;;;;;;;9.98;1.48;;;3.40;99.90;;;;;;5054112;28;20123;-70
2022/12/07 09:06:16;;;;;;;6.63;1.08;;;3.40;99.90;;;;;;5056559;28;20508;-70
2022/12/07 09:08:49;;;;;;;8.48;1.10;;;3.40;99.90;;;;;;5055207;28;20040;-70
2022/12/07 09:11:14;;;;;;;8.00;1.17;;;3.50;99.90;;;;;;5054206;28;20045;-70
2022/12/07 09:13:40;;;;;;;6.22;0.93;;;3.60;99.90;;;;;;5061796;28;20124;-70
2022/12/07 09:16:06;;;;;;;6.07;1.23;;;3.60;99.90;;;;;;5061260;28;20041;-70
2022/12/07 09:18:31;;;;;;;6.22;1.13;;;3.70;99.90;;;;;;5063573;28;20436;-70
2022/12/07 09:20:57;;;;;;;5.75;1.10;;;3.70;99.90;;;;;;5060454;28;20080;-70
2022/12/07 09:23:23;;;;;;;8.13;1.40;;;3.70;99.90;;;;;;5060540;28;20041;-70
2022/12/07 09:25:48;;;;;;;6.80;1.30;;;3.70;99.90;;;;;;5036262;28;20486;-70
2022/12/07 09:28:14;;;;;;;7.22;1.33;;;3.70;99.90;;;;;;5035185;28;20044;-70
2022/12/07 09:30:46;;;;;;;5.13;1.00;;;3.80;99.90;;;;;;5061597;28;20611;-70
2022/12/07 09:33:12;;;;;;;5.78;1.23;;;3.80;99.90;;;;;;5038979;28;20053;-70
2022/12/07 09:35:37;;;;;;;11.23;1.77;;;3.80;99.90;;;;;;5035883;28;20044;-70
2022/12/07 09:38:03;;;;;;;5.75;1.58;;;3.90;99.90;;;;;;5043343;28;20507;-70
2022/12/07 09:40:28;;;;;;;6.95;1.33;;;4.00;99.90;;;;;;5046040;28;20040;-70
2022/12/07 09:42:55;;;;;;;6.82;1.15;;;4.10;99.90;;;;;;5062901;28;20037;-70
2022/12/07 09:45:34;;;;;;;8.25;1.48;;;4.30;99.90;;;;;;5044180;28;20044;-71
2022/12/07 09:48:00;;;;;;;7.70;1.50;;;4.30;99.90;;;;;;5054494;28;20043;-70
2022/12/07 09:50:28;;;;;;;7.32;1.20;;;4.40;99.90;;;;;;5043656;28;20401;-70
2022/12/07 09:52:55;;;;;;;5.90;1.50;;;4.40;99.90;;;;;;5050364;28;20044;-70
2022/12/07 09:55:25;;;;;;;10.05;1.50;;;4.50;99.90;;;;;;5036499;28;20063;-70
2022/12/07 09:57:52;;;;;;;7.18;1.60;;;4.40;99.90;;;;;;5071235;28;20036;-70
2022/12/07 10:00:21;;;;;;;6.13;1.60;;;4.40;99.90;;;;;;5055769;28;20085;-70
2022/12/07 10:02:57;;;;;;;6.60;1.70;;;4.50;99.90;;;;;;5038593;28;20075;-70
2022/12/07 10:05:34;;;;;;;5.43;1.30;;;4.50;99.90;;;;;;5061976;28;20040;-70
2022/12/07 10:08:00;;;;;;;11.73;1.45;;;4.50;99.90;;;;;;5063771;28;20049;-71
2022/12/07 10:10:31;;;;;;;12.43;1.45;;;4.50;99.90;;;;;;5044609;28;20127;-70
2022/12/07 10:13:03;;;;;;;6.78;1.50;;;4.60;99.90;;;;;;5053477;28;20051;-71
2022/12/07 10:15:48;;;;;;;;;;;4.60;99.90;;;;;;5051601;28;20048;-70
2022/12/07 10:18:36;;;;;;;6.32;1.02;;;4.60;99.90;;;;;;5059141;28;19916;-71
2022/12/07 10:21:08;;;;;;;5.68;1.10;;;4.60;99.90;;;;;;5039330;28;20040;-71
2022/12/07 10:23:35;;;;;;;3.97;0.80;;;4.60;99.90;;;;;;5061901;28;20377;-71
2022/12/07 10:26:34;;;;;;;8.32;1.15;;;4.60;99.90;;;;;;5054125;28;20044;-71
2022/12/07 10:29:20;;;;;;;6.32;0.90;;;4.60;99.90;;;;;;5068690;28;20089;-71
2022/12/07 10:31:55;;;;;;;6.75;1.00;;;4.70;99.90;;;;;;5037599;28;20083;-71
2022/12/07 10:34:29;;;;;;;9.57;1.10;;;4.70;99.90;;;;;;5051412;28;20082;-70
2022/12/07 10:37:14;;;;;;;4.88;1.05;;;4.70;99.90;;;;;;5035121;28;20486;-70
2022/12/07 10:39:51;;;;;;;6.60;1.10;;;4.70;99.90;;;;;;5043318;28;20160;-70
2022/12/07 10:42:29;;;;;;;5.97;1.00;;;4.60;99.90;;;;;;5047438;28;20029;-70
2022/12/07 10:45:09;;;;;;;6.05;1.35;;;4.60;99.90;;;;;;5034265;28;20049;-70
2022/12/07 10:47:56;;;;;;;4.00;0.90;;;4.70;99.90;;;;;;5034342;28;20040;-70
2022/12/07 10:50:37;;;;;;;6.22;1.20;;;4.80;99.90;;;;;;5037684;28;20441;-71
2022/12/07 10:53:21;;;;;;;8.60;1.73;;;4.80;99.90;;;;;;5047040;28;20395;-70
2022/12/07 10:55:59;;;;;;;11.10;1.80;;;4.90;99.90;;;;;;5032793;28;20041;-71
2022/12/07 10:58:30;;;;;;;5.25;1.20;;;5.00;99.90;;;;;;5027493;28;20032;-70
2022/12/07 11:01:02;;;;;;;5.45;1.67;;;5.10;99.90;;;;;;5054419;28;20033;-70
2022/12/07 11:03:48;;;;;;;8.00;1.40;;;5.10;99.90;;;;;;5065479;28;20492;-71
2022/12/07 11:06:33;;;;;;;6.80;1.33;;;5.20;99.90;;;;;;5067529;28;20143;-71
2022/12/07 11:09:21;;;;;;;5.82;1.52;;;5.20;99.90;;;;;;5063297;28;20131;-71
2022/12/07 11:12:27;;;;;;;6.20;1.15;;;5.20;99.90;;;;;;5058401;28;20037;-71
2022/12/07 11:15:12;;;;;;;6.60;1.77;;;5.20;99.90;;;;;;5038211;28;20089;-71
2022/12/07 11:17:53;;;;;;;8.20;1.52;;;5.20;99.90;;;;;;5023842;28;20098;-70
2022/12/07 11:20:46;;;;;;;7.68;1.20;;;5.20;99.90;;;;;;5075022;28;20071;-87
2022/12/07 11:23:30;;;;;;;8.77;1.38;;;5.30;99.90;;;;;;5063431;28;20033;-72
2022/12/07 11:26:27;;;;;;;5.65;1.20;;;5.20;99.90;;;;;;5066158;28;20515;-71
2022/12/07 11:29:11;;;;;;;5.35;1.05;;;5.30;99.90;;;;;;5058386;28;20120;-72
2022/12/07 11:31:56;;;;;;;5.18;0.93;;;5.30;99.90;;;;;;5050026;28;20040;-72
2022/12/07 11:34:33;;;;;;;5.70;1.05;;;5.20;99.90;;;;;;5051833;28;20041;-72
2022/12/07 11:37:04;;;;;;;4.00;1.00;;;5.00;99.90;;;;;;5054698;28;20041;-71
2022/12/07 11:39:37;;;;;;;4.07;0.95;;;4.90;99.90;;;;;;5054691;28;20503;-71
2022/12/07 11:42:21;;;;;;;;;;;4.90;99.90;;;;;;5045829;28;20634;-71
2022/12/07 11:44:59;;;;;;;6.00;1.27;;;4.90;99.90;;;;;;5063893;28;19963;-71
2022/12/07 11:47:54;;;;;;;2.92;0.75;;;4.90;99.90;;;;;;5059483;28;20077;-71
2022/12/07 11:50:40;;;;;;;6.22;0.60;;;4.90;99.90;;;;;;5034639;28;20132;-71
2022/12/07 11:53:17;;;;;;;4.38;0.70;;;4.90;99.90;;;;;;5018162;28;20613;-72
2022/12/07 11:55:57;;;;;;;4.32;0.68;;;4.90;99.90;;;;;;5037504;28;20159;-71
2022/12/07 11:58:44;;;;;;;4.18;0.80;;;5.00;99.90;;;;;;5054385;28;20040;-71
2022/12/07 12:01:13;;;;;;;6.40;0.60;;;5.00;99.90;;;;;;5036106;28;20083;-71
2022/12/07 12:03:45;;;;;;;3.22;0.50;;;5.00;99.90;;;;;;5050690;28;20051;-71
2022/12/07 12:06:11;;;;;;;2.10;0.40;;;5.00;99.90;;;;;;5061706;28;20072;-71
2022/12/07 12:08:52;;;;;;;4.65;0.70;;;5.10;99.90;;;;;;5036658;28;20044;-71
2022/12/07 12:11:55;;;;;;;2.55;0.70;;;5.10;99.90;;;;;;5054376;28;20409;-71
2022/12/07 12:14:48;;;;;;;3.13;0.60;;;5.30;99.90;;;;;;5053961;28;20041;-71
2022/12/07 12:17:39;;;;;;;5.53;0.70;;;5.30;99.90;;;;;;5017921;28;20509;-71
2022/12/07 12:20:23;;;;;;;3.42;0.70;;;5.40;99.90;;;;;;5017542;28;20045;-71
2022/12/07 12:23:16;;;;;;;4.55;0.70;;;5.40;99.90;;;;;;5046217;28;20037;-71
2022/12/07 12:25:49;;;;;;;5.50;1.30;;;5.40;99.90;;;;;;5036329;28;20056;-71
2022/12/07 12:28:49;;;;;;;5.90;0.90;;;5.50;99.90;;;;;;5061875;28;20086;-71
2022/12/07 12:31:20;;;;;;;6.20;0.90;;;5.50;99.90;;;;;;5045228;28;20087;-71
2022/12/07 12:33:57;;;;;;;3.25;1.33;;;5.50;99.90;;;;;;5053864;28;20072;-71
2022/12/07 12:36:35;;;;;;;3.20;0.77;;;5.50;99.90;;;;;;5044351;28;20041;-71
2022/12/07 12:39:06;;;;;;;5.30;0.93;;;5.50;99.90;;;;;;5037113;28;20041;-71
2022/12/07 12:41:39;;;;;;;6.65;1.20;;;5.50;99.90;;;;;;5036255;28;20040;-70
2022/12/07 12:44:19;;;;;;;6.22;1.10;;;5.50;99.90;;;;;;5037253;28;20044;-71
2022/12/07 12:46:50;;;;;;;5.75;1.30;;;5.60;99.90;;;;;;5036929;28;20033;-71
2022/12/07 12:49:21;;;;;;;7.88;1.40;;;5.50;99.90;;;;;;5053789;28;20435;-71
2022/12/07 12:52:14;;;;;;;8.10;1.40;;;5.50;99.90;;;;;;5059251;28;20090;-71
2022/12/07 12:54:59;;;;;;;6.60;1.20;;;5.50;99.90;;;;;;5010789;28;20053;-71
2022/12/07 12:57:32;;;;;;;8.55;1.20;;;5.50;99.90;;;;;;5069418;28;20044;-70
2022/12/07 12:59:59;;;;;;;9.95;1.50;;;5.40;99.90;;;;;;5035671;28;20473;-70
2022/12/07 13:02:26;;;;;;;3.05;0.90;;;5.40;99.90;;;;;;5065634;28;20048;-70
2022/12/07 13:04:52;;;;;;;6.95;0.98;;;5.50;99.90;;;;;;5055295;28;20105;-70
2022/12/07 13:07:52;;;;;;;2.38;0.70;;;5.50;99.90;;;;;;5056484;28;20044;-70
2022/12/07 13:10:23;;;;;;;4.05;0.70;;;5.60;99.90;;;;;;5052019;28;20119;-70
2022/12/07 13:13:15;;;;;;;6.10;0.80;;;5.70;99.90;;;;;;5053028;28;20052;-70
2022/12/07 13:15:42;;;;;;;4.75;0.70;;;5.60;99.90;;;;;;5039726;28;20032;-70
2022/12/07 13:18:07;;;;;;;1.80;0.60;;;5.50;99.90;;;;;;5051784;28;20047;-70
2022/12/07 13:21:08;;;;;;;3.55;0.55;;;5.40;99.90;;;;;;5052606;28;20396;-70
2022/12/07 13:23:46;;;;;;;1.00;0.43;;;5.40;99.90;;;;;;5033139;28;20049;-70
2022/12/07 13:26:18;;;;;;;1.70;0.50;;;5.30;99.90;;;;;;5036234;28;20564;-70